Time;durP1;ratioP1;P1;durP2;ratioP2;P2;SDS_P1;SDS_P2;PMS_P1;PMS_P2;Temp;Humidity;BMP_temperature;BMP_pressure;BME280_temperature;BME280_humidity;BME280_pressure;Samples;Min_cycle;Max_cycle;Signal;HPM_P1;HPM_P2
2022/07/20 00:00:30;;;;;;;6.45;3.30;;;;;;;23.33;43.26;101018.22;5231221;28;20139;-71
2022/07/20 00:03:03;;;;;;;8.88;3.75;;;;;;;23.16;47.80;101012.22;5233520;28;20045;-71
2022/07/20 00:05:36;;;;;;;7.20;3.55;;;;;;;23.19;46.39;101012.66;5238266;28;20037;-71
2022/07/20 00:08:08;;;;;;;6.38;3.50;;;;;;;23.27;46.79;101015.25;5238557;28;20036;-71
2022/07/20 00:13:30;;;;;;;4.93;3.45;;;;;;;23.09;51.42;101006.72;5228414;28;20036;-70
2022/07/20 00:16:02;;;;;;;6.05;3.42;;;;;;;23.13;48.07;101021.63;5234274;28;20033;-71
2022/07/20 00:18:33;;;;;;;7.90;3.75;;;;;;;23.06;47.38;101007.94;5229967;28;20051;-71
2022/07/20 00:21:05;;;;;;;7.28;3.75;;;;;;;23.10;43.82;101008.41;5232859;28;20433;-71
2022/07/20 00:23:36;;;;;;;7.55;3.78;;;;;;;23.08;46.84;101008.59;5236689;28;20543;-71
2022/07/20 00:26:08;;;;;;;7.95;3.35;;;;;;;22.91;46.67;101001.69;5239718;28;20040;-71
2022/07/20 00:28:39;;;;;;;8.88;3.92;;;;;;;22.98;49.80;101005.34;5241830;28;20029;-71
2022/07/20 00:31:11;;;;;;;9.98;3.80;;;;;;;22.89;48.91;101011.94;5237545;28;20029;-71
2022/07/20 00:33:46;;;;;;;10.52;3.47;;;;;;;23.04;43.53;101011.91;5242336;28;20067;-71
2022/07/20 00:36:18;;;;;;;5.57;3.20;;;;;;;22.92;45.78;101018.91;5234315;28;20486;-71
2022/07/20 00:38:49;;;;;;;7.22;3.60;;;;;;;23.06;43.82;101080.59;5237538;28;20514;-71
2022/07/20 00:41:21;;;;;;;8.25;4.10;;;;;;;23.31;41.75;101037.47;5241935;28;20026;-71
2022/07/20 00:44:01;;;;;;;7.35;3.85;;;;;;;23.11;43.30;101023.72;5239872;28;20103;-71
2022/07/20 00:46:39;;;;;;;7.80;3.85;;;;;;;23.12;45.15;101025.38;5236932;28;20048;-71
2022/07/20 00:49:12;;;;;;;8.45;3.65;;;;;;;23.12;42.25;101021.81;5239643;28;20021;-71
2022/07/20 00:51:44;;;;;;;11.13;4.22;;;;;;;23.03;42.87;101049.19;5239108;28;20033;-71
2022/07/20 00:54:15;;;;;;;7.55;3.78;;;;;;;23.12;42.48;101066.19;5239524;28;20032;-71
2022/07/20 00:56:47;;;;;;;6.93;3.60;;;;;;;23.22;41.95;101044.97;5236157;28;20045;-72
2022/07/20 00:59:18;;;;;;;6.68;4.20;;;;;;;23.04;42.50;101047.28;5230317;28;20033;-71
2022/07/20 01:01:49;;;;;;;6.68;3.83;;;;;;;22.98;44.30;101064.38;5235546;28;20045;-74
2022/07/20 01:04:21;;;;;;;7.40;3.60;;;;;;;23.05;42.99;101038.06;5228975;28;20243;-71
2022/07/20 01:06:53;;;;;;;8.98;3.78;;;;;;;22.89;45.35;101039.97;5234955;28;20037;-71
2022/07/20 01:09:24;;;;;;;5.18;3.55;;;;;;;22.79;45.31;101033.19;5239169;28;20033;-72
2022/07/20 01:11:56;;;;;;;10.25;4.18;;;;;;;22.80;43.71;101035.72;5233279;28;20022;-71
2022/07/20 01:14:27;;;;;;;9.93;4.00;;;;;;;22.74;44.01;101047.34;5226936;28;20409;-71
2022/07/20 01:16:58;;;;;;;8.32;4.07;;;;;;;22.65;48.95;101038.50;5225756;28;20029;-71
2022/07/20 01:19:30;;;;;;;5.78;3.75;;;;;;;22.62;47.50;101033.44;5231142;28;20511;-71
2022/07/20 01:22:01;;;;;;;6.85;3.88;;;;;;;22.57;44.57;101027.75;5230664;28;20071;-71
2022/07/20 01:24:33;;;;;;;5.75;3.65;;;;;;;22.51;46.81;101029.34;5235978;28;20071;-71
2022/07/20 01:27:05;;;;;;;6.22;3.92;;;;;;;22.53;48.34;101034.56;5237732;28;20033;-71
2022/07/20 01:29:36;;;;;;;8.65;4.03;;;;;;;22.44;50.98;101030.31;5235466;28;20482;-71
2022/07/20 01:32:08;;;;;;;6.13;4.15;;;;;;;22.34;52.29;101030.63;5239063;28;20026;-70
2022/07/20 01:34:39;;;;;;;8.63;3.60;;;;;;;22.27;49.39;101024.25;5241787;28;20032;-71
2022/07/20 01:37:10;;;;;;;8.30;3.90;;;;;;;22.16;49.57;101025.53;5240693;28;20032;-71
2022/07/20 01:39:42;;;;;;;9.32;4.70;;;;;;;22.15;48.81;101018.41;5242634;28;20033;-71
2022/07/20 01:42:13;;;;;;;8.38;4.20;;;;;;;22.11;49.83;101025.25;5242818;28;20483;-71
2022/07/20 01:44:44;;;;;;;7.35;3.88;;;;;;;22.06;48.78;101028.53;5243120;28;20490;-71
2022/07/20 01:47:15;;;;;;;9.35;3.88;;;;;;;21.98;52.86;101028.66;5240477;28;20033;-71
2022/07/20 01:49:47;;;;;;;6.45;3.83;;;;;;;22.04;51.35;101030.59;5243112;28;20349;-71
2022/07/20 01:52:18;;;;;;;8.27;3.90;;;;;;;22.01;54.38;101030.97;5243665;28;20109;-71
2022/07/20 01:54:49;;;;;;;9.23;3.83;;;;;;;21.79;51.91;101035.47;5240610;28;20694;-71
2022/07/20 01:57:20;;;;;;;8.77;4.20;;;;;;;21.89;48.24;101040.63;5243113;28;20556;-70
2022/07/20 01:59:52;;;;;;;8.70;4.28;;;;;;;21.79;54.66;101040.06;5242975;28;20444;-71
2022/07/20 02:02:23;;;;;;;7.25;3.92;;;;;;;21.69;54.17;101054.75;5241808;28;20037;-71
2022/07/20 02:04:54;;;;;;;6.10;4.00;;;;;;;21.69;51.13;101062.91;5240646;28;20090;-72
2022/07/20 02:07:26;;;;;;;9.10;4.50;;;;;;;21.81;47.82;101076.03;5248236;28;20028;-71
2022/07/20 02:09:57;;;;;;;7.72;3.60;;;;;;;21.87;47.58;101083.44;5240874;28;20029;-72
2022/07/20 02:12:28;;;;;;;8.85;4.40;;;;;;;22.11;45.59;101093.19;5240218;28;20025;-72
2022/07/20 02:15:00;;;;;;;8.20;4.22;;;;;;;21.99;47.06;101091.97;5237144;28;20090;-72
2022/07/20 02:17:31;;;;;;;9.77;5.40;;;;;;;22.05;47.39;101094.81;5241418;28;20112;-72
2022/07/20 02:20:04;;;;;;;11.23;7.43;;;;;;;22.27;49.08;101087.59;5251792;28;20035;-71
2022/07/20 02:22:35;;;;;;;11.13;6.53;;;;;;;22.17;49.58;101078.00;5253692;28;20126;-71
2022/07/20 02:25:07;;;;;;;10.90;7.18;;;;;;;22.10;50.36;101086.06;5245783;28;20037;-71
2022/07/20 02:27:38;;;;;;;11.73;7.90;;;;;;;22.00;52.05;101093.69;5244634;28;20029;-71
2022/07/20 02:30:10;;;;;;;11.45;8.35;;;;;;;22.03;51.82;101085.13;5243334;28;20246;-71
2022/07/20 02:32:41;;;;;;;12.77;8.77;;;;;;;22.01;52.94;101088.03;5249670;28;20037;-71
2022/07/20 02:35:12;;;;;;;18.42;9.70;;;;;;;22.03;53.06;101080.53;5239593;28;20029;-71
2022/07/20 02:37:43;;;;;;;13.32;10.13;;;;;;;21.98;54.43;101080.28;5254182;28;20025;-72
2022/07/20 02:40:15;;;;;;;15.27;9.98;;;;;;;21.90;56.60;101086.63;5241992;28;20105;-71
2022/07/20 02:42:47;;;;;;;17.95;11.02;;;;;;;21.93;55.77;101086.25;5244119;28;20290;-71
2022/07/20 02:45:22;;;;;;;19.90;12.20;;;;;;;21.84;57.50;101098.25;5238381;28;20116;-72
2022/07/20 02:47:54;;;;;;;19.42;13.23;;;;;;;21.91;58.97;101095.63;5243094;28;20557;-71
2022/07/20 02:50:25;;;;;;;17.85;14.63;;;;;;;21.81;60.05;101101.31;5238917;28;20067;-71
2022/07/20 02:52:56;;;;;;;25.73;15.75;;;;;;;21.87;61.41;101094.31;5241224;28;20491;-71
2022/07/20 02:55:28;;;;;;;22.63;14.82;;;;;;;21.76;62.47;101083.91;5243215;28;20029;-71
2022/07/20 02:57:59;;;;;;;22.95;16.30;;;;;;;21.80;63.52;101087.91;5242976;28;20029;-71
2022/07/20 03:00:31;;;;;;;22.50;17.27;;;;;;;21.74;64.74;101086.78;5238629;28;20033;-72
2022/07/20 03:03:03;;;;;;;25.23;16.92;;;;;;;21.65;65.70;101091.47;5242718;28;20249;-72
2022/07/20 03:05:35;;;;;;;26.05;16.83;;;;;;;21.66;66.61;101103.16;5241359;28;20119;-71
2022/07/20 03:08:07;;;;;;;25.67;18.75;;;;;;;21.63;66.79;101104.41;5241389;28;20031;-71
2022/07/20 03:10:39;;;;;;;27.10;19.90;;;;;;;21.63;67.50;101103.53;5238413;28;20397;-71
2022/07/20 03:13:10;;;;;;;25.85;18.27;;;;;;;21.50;67.32;101090.59;5241162;28;20472;-71
2022/07/20 03:15:41;;;;;;;29.98;20.10;;;;;;;21.52;68.98;101085.81;5238467;28;20040;-71
2022/07/20 03:18:13;;;;;;;25.48;19.08;;;;;;;21.45;69.30;101082.16;5243689;28;20501;-71
2022/07/20 03:20:44;;;;;;;24.20;20.20;;;;;;;21.49;70.88;101089.72;5234993;28;20032;-71
2022/07/20 03:23:15;;;;;;;27.20;20.50;;;;;;;21.43;70.13;101097.75;5236486;28;20055;-71
2022/07/20 03:25:47;;;;;;;29.50;20.75;;;;;;;21.38;71.12;101109.13;5236196;28;20413;-71
2022/07/20 03:28:19;;;;;;;29.38;21.40;;;;;;;21.34;72.00;101122.25;5236686;28;20029;-71
2022/07/20 03:30:50;;;;;;;27.58;22.15;;;;;;;21.29;72.06;101113.81;5230025;28;20137;-71
2022/07/20 03:33:21;;;;;;;29.85;23.42;;;;;;;21.27;72.59;101120.44;5233171;28;20371;-71
2022/07/20 03:35:52;;;;;;;28.08;21.63;;;;;;;21.29;73.67;101138.22;5231313;28;20040;-71
2022/07/20 03:38:24;;;;;;;29.42;22.42;;;;;;;21.19;73.82;101139.47;5232360;28;20024;-71
2022/07/20 03:40:55;;;;;;;28.63;21.98;;;;;;;21.25;74.04;101141.50;5229861;28;20036;-71
2022/07/20 03:43:27;;;;;;;30.75;23.05;;;;;;;21.15;74.16;101148.00;5230433;28;20582;-71
2022/07/20 03:45:58;;;;;;;28.75;23.38;;;;;;;21.17;76.38;101155.09;5233657;28;20408;-71
2022/07/20 03:48:29;;;;;;;29.75;22.52;;;;;;;21.13;75.29;101152.75;5240548;28;20036;-71
2022/07/20 03:51:00;;;;;;;32.08;24.05;;;;;;;21.10;75.73;101163.97;5233582;28;20415;-72
2022/07/20 03:53:32;;;;;;;31.98;24.42;;;;;;;21.15;76.19;101169.69;5232462;28;20055;-71
2022/07/20 03:56:04;;;;;;;36.50;25.65;;;;;;;21.08;76.56;101176.84;5229590;28;20079;-71
2022/07/20 03:58:35;;;;;;;28.80;24.30;;;;;;;21.13;76.96;101184.44;5230656;28;20025;-71
2022/07/20 04:01:06;;;;;;;35.65;25.52;;;;;;;21.04;76.14;101191.81;5230801;28;20025;-71
2022/07/20 04:03:38;;;;;;;35.15;25.38;;;;;;;21.06;76.81;101191.63;5230112;28;20932;-71
2022/07/20 04:06:09;;;;;;;31.52;25.13;;;;;;;21.07;76.97;101196.03;5233748;28;20059;-71
2022/07/20 04:08:40;;;;;;;31.00;25.45;;;;;;;21.12;76.60;101199.06;5227938;28;20094;-71
2022/07/20 04:11:11;;;;;;;35.72;24.95;;;;;;;21.08;76.36;101208.59;5229878;28;20028;-71
2022/07/20 04:13:43;;;;;;;35.13;25.23;;;;;;;21.11;76.83;101197.34;5231727;28;20654;-71
2022/07/20 04:16:14;;;;;;;31.35;23.73;;;;;;;21.07;77.31;101188.72;5233893;28;20025;-71
2022/07/20 04:18:45;;;;;;;29.08;23.83;;;;;;;21.12;76.85;101201.78;5239203;28;20025;-71
2022/07/20 04:21:16;;;;;;;29.65;23.77;;;;;;;;;;5238586;28;20028;-71
2022/07/20 04:23:48;;;;;;;32.30;23.38;;;;;;;21.21;76.03;101214.28;5229199;28;20053;-71
2022/07/20 04:26:19;;;;;;;28.55;23.45;;;;;;;21.26;77.27;101206.44;5246547;28;20331;-72
2022/07/20 04:28:50;;;;;;;32.50;23.45;;;;;;;21.28;75.90;101203.53;5231761;28;20052;-71
2022/07/20 04:31:22;;;;;;;29.17;23.38;;;;;;;21.34;75.14;101211.81;5229891;28;20028;-72
2022/07/20 04:33:53;;;;;;;32.53;23.45;;;;;;;21.43;74.90;101218.03;5238286;28;20557;-71
2022/07/20 04:36:24;;;;;;;26.33;21.77;;;;;;;21.51;76.03;101223.44;5235087;28;20099;-71
2022/07/20 04:38:55;;;;;;;30.27;22.58;;;;;;;21.52;74.74;101219.69;5236127;28;20379;-71
2022/07/20 04:41:27;;;;;;;28.70;22.08;;;;;;;21.60;73.69;101228.81;5236673;28;20028;-71
2022/07/20 04:43:59;;;;;;;28.30;21.65;;;;;;;21.62;74.08;101227.59;5236512;28;20058;-71
2022/07/20 04:46:30;;;;;;;29.25;22.02;;;;;;;21.67;73.12;101230.63;5240531;28;20037;-72
2022/07/20 04:49:01;;;;;;;25.35;20.88;;;;;;;21.70;72.96;101234.84;5238245;28;20041;-71
2022/07/20 04:51:34;;;;;;;26.20;21.50;;;;;;;21.74;73.43;101252.47;5238395;28;20152;-71
2022/07/20 04:54:05;;;;;;;26.85;20.88;;;;;;;21.79;72.08;101244.63;5239913;28;20029;-71
2022/07/20 04:56:36;;;;;;;26.77;20.42;;;;;;;21.73;72.76;101250.78;5237893;28;20083;-71
2022/07/20 04:59:08;;;;;;;26.85;20.70;;;;;;;21.69;73.38;101253.03;5239881;28;20029;-71
2022/07/20 05:01:39;;;;;;;29.73;19.63;;;;;;;21.73;72.12;101234.50;5236140;28;20091;-71
2022/07/20 05:04:11;;;;;;;25.80;19.40;;;;;;;21.76;71.93;101238.72;5237737;28;20052;-71
2022/07/20 05:06:42;;;;;;;25.48;19.77;;;;;;;21.76;73.42;101238.72;5236634;28;20043;-72
2022/07/20 05:09:13;;;;;;;24.70;18.70;;;;;;;21.71;73.06;101240.09;5241625;28;20415;-71
2022/07/20 05:11:45;;;;;;;25.58;19.23;;;;;;;21.76;71.32;101242.25;5241702;28;20432;-71
2022/07/20 05:14:16;;;;;;;27.08;19.30;;;;;;;21.77;71.89;101238.53;5244270;28;20148;-71
2022/07/20 05:16:48;;;;;;;25.20;19.65;;;;;;;21.78;71.13;101237.50;5238977;28;20053;-71
2022/07/20 05:19:19;;;;;;;27.55;18.75;;;;;;;21.81;72.00;101241.75;5235865;28;20025;-71
2022/07/20 05:21:50;;;;;;;33.38;19.70;;;;;;;21.84;72.28;101246.78;5256731;28;20037;-71
2022/07/20 05:24:22;;;;;;;24.38;18.40;;;;;;;21.86;72.45;101250.16;5237563;28;20075;-71
2022/07/20 05:26:54;;;;;;;23.73;17.50;;;;;;;21.93;70.78;101267.44;5243864;28;20025;-71
2022/07/20 05:29:26;;;;;;;21.40;18.27;;;;;;;21.93;70.71;101278.31;5244294;28;20056;-71
2022/07/20 05:31:57;;;;;;;23.30;17.88;;;;;;;21.97;71.65;101282.34;5238568;28;20132;-71
2022/07/20 05:34:28;;;;;;;22.02;18.25;;;;;;;22.00;70.81;101281.16;5243278;28;20039;-72
2022/07/20 05:36:59;;;;;;;26.20;18.98;;;;;;;22.02;71.15;101292.69;5242337;28;20033;-71
2022/07/20 05:39:31;;;;;;;23.42;17.88;;;;;;;22.06;71.54;101288.56;5243392;28;20223;-71
2022/07/20 05:42:02;;;;;;;20.50;16.95;;;;;;;22.07;71.88;101296.56;5243987;28;20033;-71
2022/07/20 05:44:34;;;;;;;23.92;18.77;;;;;;;22.18;70.77;101306.13;5242462;28;20037;-71
2022/07/20 05:47:09;;;;;;;22.65;18.15;;;;;;;22.28;72.06;101320.38;5244588;28;20033;-71
2022/07/20 05:49:40;;;;;;;21.05;16.38;;;;;;;22.42;69.64;101316.00;5242805;28;20499;-71
2022/07/20 05:52:11;;;;;;;25.23;17.20;;;;;;;22.54;69.10;101318.25;5240318;28;20029;-70
2022/07/20 05:54:43;;;;;;;22.67;16.80;;;;;;;22.60;68.11;101325.69;5242118;28;20043;-71
2022/07/20 05:57:14;;;;;;;20.27;15.50;;;;;;;22.71;68.60;101331.50;5245077;28;20414;-70
2022/07/20 05:59:45;;;;;;;23.20;15.07;;;;;;;22.82;66.82;101342.94;5258013;28;20029;-70
2022/07/20 06:02:16;;;;;;;21.13;15.38;;;;;;;22.90;65.50;101343.72;5249170;28;20495;-70
2022/07/20 06:04:48;;;;;;;22.52;15.40;;;;;;;22.93;65.32;101342.50;5237707;28;20514;-70
2022/07/20 06:07:19;;;;;;;22.42;15.57;;;;;;;22.97;66.23;101353.84;5239217;28;20464;-70
2022/07/20 06:09:50;;;;;;;19.83;14.57;;;;;;;23.10;66.56;101362.25;5238005;28;20072;-70
2022/07/20 06:12:22;;;;;;;18.73;13.90;;;;;;;23.00;65.38;101361.66;5253865;28;20020;-69
2022/07/20 06:14:53;;;;;;;18.60;13.75;;;;;;;23.02;65.86;101363.16;5243056;28;20036;-69
2022/07/20 06:17:32;;;;;;;19.08;13.80;;;;;;;23.08;65.38;101386.09;5261676;28;20083;-70
2022/07/20 06:20:14;;;;;;;20.90;14.13;;;;;;;23.06;65.44;101380.00;5252029;28;20387;-69
2022/07/20 06:22:46;;;;;;;19.98;13.85;;;;;;;23.03;65.19;101388.53;5250754;28;20044;-70
2022/07/20 06:25:18;;;;;;;19.90;13.77;;;;;;;23.00;65.36;101399.75;5249487;28;20434;-70
2022/07/20 06:27:50;;;;;;;19.30;13.32;;;;;;;23.02;65.97;101401.25;5238937;28;20086;-71
2022/07/20 06:30:21;;;;;;;16.42;13.07;;;;;;;23.12;65.51;101411.91;5248356;28;20060;-71
2022/07/20 06:32:53;;;;;;;20.35;13.30;;;;;;;23.14;64.01;101407.13;5253887;28;20028;-70
2022/07/20 06:35:24;;;;;;;20.10;14.18;;;;;;;23.20;65.25;101430.88;5248941;28;20029;-70
2022/07/20 06:37:56;;;;;;;18.85;12.80;;;;;;;23.40;65.29;101438.50;5249292;28;20028;-70
2022/07/20 06:40:28;;;;;;;18.92;13.68;;;;;;;23.42;63.64;101441.88;5249320;28;20038;-69
2022/07/20 06:42:59;;;;;;;19.42;13.27;;;;;;;23.47;63.50;101450.31;5251036;28;20044;-70
2022/07/20 06:45:30;;;;;;;20.25;13.45;;;;;;;23.54;63.51;101456.72;5251938;28;20028;-70
2022/07/20 06:48:02;;;;;;;20.65;13.30;;;;;;;23.51;62.34;101459.81;5242019;28;20124;-69
2022/07/20 06:50:33;;;;;;;18.83;12.80;;;;;;;23.49;62.56;101460.00;5250294;28;20043;-71
2022/07/20 06:53:04;;;;;;;15.75;13.10;;;;;;;23.41;63.84;101464.69;5247154;28;20482;-71
2022/07/20 06:55:36;;;;;;;17.13;12.85;;;;;;;23.34;63.58;101461.00;5255146;28;20108;-70
2022/07/20 06:58:08;;;;;;;19.65;13.27;;;;;;;23.29;63.42;101481.47;5254782;28;20102;-71
2022/07/20 07:00:39;;;;;;;16.50;12.23;;;;;;;23.32;63.92;101479.41;5250429;28;20028;-70
2022/07/20 07:03:11;;;;;;;17.67;12.52;;;;;;;23.36;65.88;101476.16;5248444;28;20411;-71
2022/07/20 07:05:42;;;;;;;19.30;12.95;;;;;;;23.37;64.73;101474.28;5252408;28;20117;-70
2022/07/20 07:08:13;;;;;;;19.02;12.73;;;;;;;23.48;64.23;101482.81;5253456;28;20021;-70
2022/07/20 07:10:44;;;;;;;16.20;11.73;;;;;;;23.59;64.90;101475.22;5249908;28;20056;-70
2022/07/20 07:13:16;;;;;;;19.08;12.55;;;;;;;23.74;64.01;101464.31;5248456;28;20030;-71
2022/07/20 07:15:47;;;;;;;15.88;12.48;;;;;;;23.84;66.23;101448.56;5250985;28;20391;-70
2022/07/20 07:18:18;;;;;;;19.92;13.00;;;;;;;23.93;62.15;101461.03;5247972;28;20375;-71
2022/07/20 07:20:50;;;;;;;17.25;12.45;;;;;;;24.06;61.13;101463.06;5242770;28;20029;-70
2022/07/20 07:23:21;;;;;;;14.95;11.45;;;;;;;24.26;62.17;101466.88;5247021;28;20610;-70
2022/07/20 07:25:53;;;;;;;21.23;12.90;;;;;;;24.40;60.81;101472.47;5241193;28;20033;-71
2022/07/20 07:28:24;;;;;;;17.33;12.73;;;;;;;24.48;60.39;101482.41;5252065;28;20078;-71
2022/07/20 07:30:55;;;;;;;17.08;11.90;;;;;;;24.59;61.07;101503.78;5248697;28;20016;-71
2022/07/20 07:33:27;;;;;;;17.00;11.50;;;;;;;24.67;59.78;101502.81;5245741;28;20396;-71
2022/07/20 07:35:58;;;;;;;16.85;11.23;;;;;;;24.65;59.44;101508.44;5243048;28;20118;-71
2022/07/20 07:38:29;;;;;;;15.93;10.98;;;;;;;24.70;58.66;101506.00;5254587;28;20059;-70
2022/07/20 07:41:01;;;;;;;17.15;11.10;;;;;;;24.87;59.29;101516.63;5240048;28;20025;-70
2022/07/20 07:43:32;;;;;;;18.88;11.27;;;;;;;24.94;58.50;101518.38;5246742;28;20127;-71
2022/07/20 07:46:05;;;;;;;18.42;10.93;;;;;;;25.01;57.86;101527.47;5250243;28;20021;-70
2022/07/20 07:48:36;;;;;;;14.48;11.40;;;;;;;25.19;58.32;101529.72;5255291;28;20112;-70
2022/07/20 07:51:08;;;;;;;14.40;10.82;;;;;;;25.32;59.13;101536.38;5251891;28;20574;-71
2022/07/20 07:53:39;;;;;;;18.73;10.10;;;;;;;25.39;57.70;101531.78;5250666;28;20486;-71
2022/07/20 07:56:11;;;;;;;15.00;10.93;;;;;;;25.42;56.99;101531.41;5248783;28;20033;-70
2022/07/20 07:58:42;;;;;;;14.80;10.07;;;;;;;25.37;55.54;101539.34;5252944;28;20043;-70
2022/07/20 08:01:14;;;;;;;14.13;10.07;;;;;;;25.33;54.40;101543.53;5248194;28;20395;-70
2022/07/20 08:03:45;;;;;;;13.60;8.80;;;;;;;25.27;54.38;101519.72;5245744;28;20028;-71
2022/07/20 08:06:16;;;;;;;15.10;9.35;;;;;;;25.31;54.77;101515.56;5244539;28;20025;-71
2022/07/20 08:08:48;;;;;;;18.90;10.13;;;;;;;25.36;54.28;101510.34;5243541;28;20040;-70
2022/07/20 08:11:19;;;;;;;12.55;8.98;;;;;;;25.44;54.47;101512.91;5243676;28;20104;-70
2022/07/20 08:13:53;;;;;;;13.25;9.48;;;;;;;25.40;53.95;101492.50;5246361;28;20556;-71
2022/07/20 08:16:24;;;;;;;23.98;9.75;;;;;;;25.47;54.02;101495.28;5242733;28;20021;-71
2022/07/20 08:18:55;;;;;;;14.65;10.13;;;;;;;25.64;54.30;101491.22;5250368;28;20039;-72
2022/07/20 08:21:27;;;;;;;12.57;9.32;;;;;;;25.72;55.02;101488.28;5248196;28;20070;-71
2022/07/20 08:23:58;;;;;;;15.00;9.25;;;;;;;25.65;54.15;101492.88;5247977;28;20053;-71
2022/07/20 08:26:29;;;;;;;12.02;8.88;;;;;;;25.76;54.30;101496.94;5247350;28;20063;-72
2022/07/20 08:29:01;;;;;;;12.38;9.52;;;;;;;25.71;53.97;101502.16;5246007;28;20040;-71
2022/07/20 08:31:32;;;;;;;13.82;10.05;;;;;;;25.63;53.41;101509.47;5246503;28;20033;-71
2022/07/20 08:34:04;;;;;;;15.95;10.43;;;;;;;25.71;53.09;101521.28;5251300;28;20071;-71
2022/07/20 08:36:35;;;;;;;16.15;9.57;;;;;;;25.90;53.71;101527.91;5246907;28;20033;-71
2022/07/20 08:39:06;;;;;;;14.23;9.57;;;;;;;26.15;54.33;101534.59;5249341;28;20037;-72
2022/07/20 08:41:40;;;;;;;15.80;9.48;;;;;;;26.07;53.34;101534.75;5247863;28;20129;-71
2022/07/20 08:44:12;;;;;;;14.68;9.18;;;;;;;26.30;53.99;101550.84;5251845;28;20952;-72
2022/07/20 08:46:44;;;;;;;14.80;9.55;;;;;;;26.10;53.46;101538.97;5247547;28;20108;-72
2022/07/20 08:49:15;;;;;;;14.88;10.07;;;;;;;26.20;52.87;101528.50;5255811;28;20078;-71
2022/07/20 08:51:47;;;;;;;14.18;10.10;;;;;;;26.32;52.41;101526.88;5251760;28;20025;-71
2022/07/20 08:54:18;;;;;;;12.93;9.15;;;;;;;26.51;52.85;101532.63;5249457;28;20025;-71
2022/07/20 08:56:50;;;;;;;14.80;9.52;;;;;;;26.57;52.15;101520.84;5246614;28;20061;-71
2022/07/20 08:59:24;;;;;;;17.13;10.05;;;;;;;26.77;52.30;101513.53;5253118;28;20065;-71
2022/07/20 09:02:07;;;;;;;14.27;9.88;;;;;;;26.84;51.90;101490.78;5249884;28;20063;-71
2022/07/20 09:04:57;;;;;;;14.80;9.57;;;;;;;26.82;51.41;101480.03;5242985;28;20815;-71
2022/07/20 09:07:38;;;;;;;15.98;10.18;;;;;;;26.62;51.09;101499.19;5239887;28;20052;-71
2022/07/20 09:10:32;;;;;;;13.45;10.50;;;;;;;26.45;51.91;101517.88;5238394;28;20029;-71
2022/07/20 09:13:09;;;;;;;12.73;9.38;;;;;;;26.58;52.66;101536.22;5233730;28;20034;-71
2022/07/20 09:15:47;;;;;;;11.63;9.57;;;;;;;26.74;53.30;101535.00;5239462;28;20021;-71
2022/07/20 09:18:25;;;;;;;16.73;10.00;;;;;;;27.02;51.88;101564.97;5239653;28;20025;-71
2022/07/20 09:20:58;;;;;;;14.02;9.38;;;;;;;27.12;52.91;101591.94;5243405;28;20144;-71
2022/07/20 09:23:41;;;;;;;13.32;9.05;;;;;;;27.24;51.82;101617.66;5243462;28;20029;-71
2022/07/20 09:26:15;;;;;;;12.15;9.68;;;;;;;27.32;50.71;101622.13;5245457;28;20098;-72
2022/07/20 09:28:49;;;;;;;14.32;10.20;;;;;;;27.23;51.49;101631.56;5251068;28;20037;-71
2022/07/20 09:31:25;;;;;;;16.05;10.05;;;;;;;27.25;50.92;101613.06;5237037;28;20109;-72
2022/07/20 09:33:59;;;;;;;11.85;9.50;;;;;;;27.46;51.54;101614.75;5241278;28;20376;-70
2022/07/20 09:36:32;;;;;;;13.95;9.80;;;;;;;27.57;50.17;101584.78;5242838;28;20118;-72
2022/07/20 09:39:10;;;;;;;;;;;;;;;27.90;48.85;101597.66;5239571;28;20045;-71
2022/07/20 09:41:43;;;;;;;14.05;9.80;;;;;;;27.70;49.50;101591.34;5236926;28;20011;-71
2022/07/20 09:44:26;;;;;;;14.65;9.25;;;;;;;27.67;50.70;101586.25;5246073;28;20434;-71
2022/07/20 09:46:58;;;;;;;12.50;9.90;;;;;;;27.61;48.96;101584.38;5237313;28;20040;-70
2022/07/20 09:49:32;;;;;;;14.60;9.70;;;;;;;27.87;50.30;101587.06;5241317;28;20025;-71
2022/07/20 09:52:06;;;;;;;12.75;9.77;;;;;;;27.84;49.28;101576.53;5250883;28;20479;-71
2022/07/20 09:54:37;;;;;;;13.45;10.00;;;;;;;27.79;48.97;101576.34;5248212;28;20029;-71
2022/07/20 09:57:09;;;;;;;13.02;9.02;;;;;;;28.10;48.53;101563.84;5250577;28;20037;-72
2022/07/20 09:59:46;;;;;;;12.25;8.70;;;;;;;28.11;48.21;101560.03;5238838;28;20476;-71
2022/07/20 10:02:19;;;;;;;11.00;8.80;;;;;;;28.10;46.74;101581.13;5240655;28;20041;-71
2022/07/20 10:04:53;;;;;;;17.65;8.68;;;;;;;27.84;46.96;101567.47;5246500;28;20033;-71
2022/07/20 10:07:24;;;;;;;;;;;;;;;28.08;46.46;101575.03;5249090;28;20498;-71
2022/07/20 10:09:56;;;;;;;12.80;7.60;;;;;;;27.63;47.36;101587.75;5241184;28;19970;-71
2022/07/20 10:12:28;;;;;;;17.52;8.65;;;;;;;27.67;47.92;101595.34;5240601;28;20097;-71
2022/07/20 10:15:00;;;;;;;14.45;8.35;;;;;;;27.71;47.54;101601.22;5243317;28;20059;-70
2022/07/20 10:17:33;;;;;;;14.07;7.90;;;;;;;27.94;47.39;101598.06;5240412;28;20036;-71
2022/07/20 10:20:27;;;;;;;13.05;8.32;;;;;;;27.70;47.73;101581.19;5243577;28;20440;-71
2022/07/20 10:23:16;;;;;;;12.52;8.38;;;;;;;27.93;47.40;101580.75;5237276;28;20025;-71
2022/07/20 10:25:47;;;;;;;13.93;8.15;;;;;;;27.93;47.85;101571.69;5237826;28;20035;-71
2022/07/20 10:28:28;;;;;;;13.65;8.55;;;;;;;27.91;48.03;101571.91;5235029;28;20024;-72
2022/07/20 10:31:10;;;;;;;11.82;8.10;;;;;;;28.14;48.32;101576.91;5234972;28;20467;-71
2022/07/20 10:33:42;;;;;;;11.23;8.87;;;;;;;28.21;47.11;101570.53;5240509;28;20520;-71
2022/07/20 10:39:43;;;;;;;11.00;7.38;;;;;;;28.50;45.44;101570.00;5241740;28;20045;-71
2022/07/20 10:42:37;;;;;;;11.95;7.22;;;;;;;28.44;46.33;101559.03;5234955;28;20037;-70
2022/07/20 10:45:14;;;;;;;13.90;7.43;;;;;;;28.28;46.07;101563.13;5233948;28;20033;-71
2022/07/20 10:47:49;;;;;;;9.32;7.20;;;;;;;28.66;46.32;101568.66;5248378;28;20521;-71
2022/07/20 10:50:30;;;;;;;12.27;7.18;;;;;;;28.56;45.34;101572.97;5235775;28;20025;-72
2022/07/20 10:53:11;;;;;;;9.18;7.20;;;;;;;28.57;46.03;101571.88;5245271;28;20411;-71
2022/07/20 10:55:46;;;;;;;10.13;6.95;;;;;;;28.63;45.67;101563.63;5237622;28;20504;-72
2022/07/20 10:58:24;;;;;;;9.90;7.00;;;;;;;28.60;45.04;101571.47;5241979;28;20041;-71
2022/07/20 11:00:58;;;;;;;10.40;7.38;;;;;;;28.60;44.89;101577.78;5249735;28;20029;-71
2022/07/20 11:03:45;;;;;;;9.52;7.22;;;;;;;28.54;45.57;101578.66;5245765;28;20048;-71
2022/07/20 11:06:19;;;;;;;11.60;7.53;;;;;;;28.52;46.41;101581.63;5236715;28;20067;-71
2022/07/20 11:08:50;;;;;;;10.32;7.45;;;;;;;28.44;46.43;101576.38;5239531;28;20395;-71
2022/07/20 11:11:27;;;;;;;11.32;7.30;;;;;;;28.84;46.49;101586.31;5248897;28;20025;-72
2022/07/20 11:13:58;;;;;;;10.20;7.55;;;;;;;28.74;45.58;101578.53;5243309;28;20049;-71
2022/07/20 11:16:31;;;;;;;10.52;6.82;;;;;;;28.97;45.95;101571.63;5239148;28;20108;-71
2022/07/20 11:19:04;;;;;;;9.67;7.27;;;;;;;28.85;45.75;101563.28;5244586;28;20496;-71
2022/07/20 11:21:40;;;;;;;9.55;7.10;;;;;;;29.07;45.15;101569.22;5247687;28;20057;-71
2022/07/20 11:24:30;;;;;;;13.07;7.03;;;;;;;29.03;45.52;101563.34;5238005;28;20041;-71
2022/07/20 11:27:15;;;;;;;10.93;6.78;;;;;;;29.04;45.77;101567.78;5238058;28;20022;-71
2022/07/20 11:29:49;;;;;;;10.00;6.70;;;;;;;29.30;44.69;101561.28;5247544;28;20039;-71
2022/07/20 11:32:20;;;;;;;12.52;7.53;;;;;;;29.11;44.85;101559.47;5241727;28;20081;-71
2022/07/20 11:34:53;;;;;;;11.65;6.35;;;;;;;29.47;44.04;101561.50;5260361;28;20021;-71
2022/07/20 11:37:25;;;;;;;8.38;5.22;;;;;;;29.42;43.08;101564.13;5243610;28;20053;-71
2022/07/20 11:39:56;;;;;;;8.50;5.10;;;;;;;29.59;43.57;101552.53;5237060;28;20517;-71
2022/07/20 11:42:28;;;;;;;9.95;5.78;;;;;;;29.47;43.63;101558.75;5240708;28;20068;-71
2022/07/20 11:45:00;;;;;;;9.27;5.78;;;;;;;29.45;43.10;101557.31;5240245;28;20041;-70
2022/07/20 11:47:33;;;;;;;9.85;5.82;;;;;;;29.59;43.53;101563.53;5238940;28;20105;-71